Time;durP1;ratioP1;P1;durP2;ratioP2;P2;SDS_P1;SDS_P2;PMS_P1;PMS_P2;Temp;Humidity;BMP_temperature;BMP_pressure;BME280_temperature;BME280_humidity;BME280_pressure;Samples;Min_cycle;Max_cycle;Signal;HPM_P1;HPM_P2
2023/12/02 00:00:38;;;;;;;20.90;18.77;;;2.80;47.90;;;;;;5020677;28;20292;-82
2023/12/02 00:03:06;;;;;;;23.38;18.45;;;2.70;21.40;;;;;;5020068;28;20966;-82
2023/12/02 00:05:35;;;;;;;21.27;18.10;;;2.70;5.80;;;;;;5015944;28;20246;-83
2023/12/02 00:08:03;;;;;;;24.95;19.40;;;2.70;66.10;;;;;;5019181;28;20206;-84
2023/12/02 00:10:31;;;;;;;21.50;18.33;;;2.70;99.90;;;;;;5016336;28;20839;-83
2023/12/02 00:13:00;;;;;;;24.67;18.95;;;2.70;99.90;;;;;;5014013;28;20669;-80
2023/12/02 00:15:28;;;;;;;21.20;19.10;;;2.70;82.90;;;;;;5019393;28;20246;-80
2023/12/02 00:17:57;;;;;;;21.85;19.27;;;2.80;99.90;;;;;;5016749;28;20276;-82
2023/12/02 00:20:26;;;;;;;21.10;18.95;;;2.70;6.50;;;;;;5016103;28;20232;-82
2023/12/02 00:22:54;;;;;;;23.13;19.98;;;2.70;86.80;;;;;;5018252;28;20264;-83
2023/12/02 00:25:22;;;;;;;20.70;18.50;;;2.70;30.40;;;;;;5018328;28;20234;-80
2023/12/02 00:27:50;;;;;;;20.40;18.23;;;2.80;6.30;;;;;;5016583;28;20206;-83
2023/12/02 00:30:19;;;;;;;20.33;18.15;;;2.80;16.40;;;;;;5017969;28;20213;-81
2023/12/02 00:32:48;;;;;;;20.05;17.95;;;2.70;59.30;;;;;;5016077;28;20565;-84
2023/12/02 00:35:17;;;;;;;21.35;19.20;;;2.80;99.90;;;;;;5016155;28;20262;-85
2023/12/02 00:37:45;;;;;;;19.30;17.40;;;2.70;28.80;;;;;;5018532;28;20198;-84
2023/12/02 00:40:13;;;;;;;22.10;19.75;;;2.80;77.40;;;;;;5017760;28;20202;-84
2023/12/02 00:42:42;;;;;;;21.30;18.95;;;2.70;15.80;;;;;;5018716;28;20229;-81
2023/12/02 00:45:11;;;;;;;21.65;19.27;;;2.70;21.40;;;;;;5019870;28;20301;-81
2023/12/02 00:47:39;;;;;;;23.15;18.52;;;2.80;40.80;;;;;;5016223;28;20617;-82
2023/12/02 00:50:09;;;;;;;19.63;17.67;;;2.70;1.00;;;;;;5020685;28;20207;-82
2023/12/02 00:52:38;;;;;;;23.65;19.60;;;2.70;72.80;;;;;;5013118;28;20207;-82
2023/12/02 00:55:07;;;;;;;21.27;18.20;;;2.70;1.00;;;;;;5016314;28;20268;-83
2023/12/02 00:57:36;;;;;;;21.13;18.10;;;2.60;92.30;;;;;;5017764;28;20203;-82
2023/12/02 01:00:06;;;;;;;23.33;19.08;;;2.70;99.90;;;;;;5019099;28;20719;-84
2023/12/02 01:02:34;;;;;;;20.42;18.25;;;2.70;55.30;;;;;;5017030;28;20240;-82
2023/12/02 01:05:03;;;;;;;21.45;18.10;;;2.70;1.00;;;;;;5018431;28;20807;-84
2023/12/02 01:07:33;;;;;;;18.67;16.67;;;2.70;1.00;;;;;;5015509;28;20293;-83
2023/12/02 01:10:03;;;;;;;20.35;18.23;;;2.60;1.00;;;;;;5015509;28;20664;-84
2023/12/02 01:12:31;;;;;;;17.73;15.10;;;2.60;1.00;;;;;;5016859;28;20210;-83
2023/12/02 01:14:59;;;;;;;20.13;16.50;;;2.60;1.00;;;;;;5017785;28;20211;-83
2023/12/02 01:17:28;;;;;;;17.48;15.70;;;2.50;1.00;;;;;;5018245;28;20219;-82
2023/12/02 01:19:56;;;;;;;19.25;17.55;;;2.60;1.00;;;;;;5016995;28;20215;-80
2023/12/02 01:22:24;;;;;;;16.80;15.13;;;2.60;1.00;;;;;;5016638;28;20325;-82
2023/12/02 01:24:52;;;;;;;15.75;14.15;;;2.60;1.00;;;;;;5018449;28;20225;-82
2023/12/02 01:27:22;;;;;;;17.80;16.08;;;2.60;1.00;;;;;;5015578;28;20237;-83
2023/12/02 01:29:50;;;;;;;16.65;14.90;;;2.60;1.00;;;;;;5019527;28;20265;-82
2023/12/02 01:32:18;;;;;;;17.52;15.77;;;2.70;1.00;;;;;;5018689;28;20302;-83
2023/12/02 01:34:47;;;;;;;17.55;15.85;;;2.60;1.00;;;;;;5018106;28;20229;-81
2023/12/02 01:37:15;;;;;;;18.77;16.15;;;2.60;1.00;;;;;;5018866;28;20203;-82
2023/12/02 01:39:43;;;;;;;16.92;15.18;;;2.70;1.00;;;;;;5013473;28;20245;-82
2023/12/02 01:42:11;;;;;;;16.88;15.25;;;2.60;1.00;;;;;;5016953;28;20194;-82
2023/12/02 01:44:41;;;;;;;15.68;14.15;;;2.60;1.00;;;;;;5017772;28;20202;-82
2023/12/02 01:47:09;;;;;;;16.42;15.02;;;2.60;1.00;;;;;;5019633;28;20218;-82
2023/12/02 01:49:38;;;;;;;15.88;14.57;;;2.50;1.00;;;;;;5016413;28;20221;-82
2023/12/02 01:52:08;;;;;;;18.08;15.02;;;2.50;1.00;;;;;;5017513;28;20206;-79
2023/12/02 01:54:36;;;;;;;15.93;14.60;;;2.60;1.00;;;;;;5018938;28;20199;-83
2023/12/02 01:57:05;;;;;;;17.20;15.45;;;2.50;1.00;;;;;;5017451;28;20289;-84
2023/12/02 01:59:34;;;;;;;16.73;15.05;;;2.50;1.00;;;;;;5020222;28;20210;-84
2023/12/02 02:02:03;;;;;;;16.42;14.88;;;2.50;1.00;;;;;;5017641;28;20219;-83
2023/12/02 02:04:31;;;;;;;16.35;14.70;;;2.50;1.00;;;;;;5018586;28;20194;-84
2023/12/02 02:07:00;;;;;;;18.40;16.58;;;2.50;1.00;;;;;;5019170;28;20726;-83
2023/12/02 02:09:34;;;;;;;16.55;15.02;;;2.50;1.00;;;;;;5026470;28;20199;-83
2023/12/02 02:12:03;;;;;;;17.55;15.98;;;2.50;1.00;;;;;;5027625;28;20198;-82
2023/12/02 02:14:31;;;;;;;18.83;16.83;;;2.50;1.00;;;;;;5019333;28;20191;-81
2023/12/02 02:16:59;;;;;;;16.63;14.90;;;2.50;99.90;;;;;;5022006;28;21056;-82
2023/12/02 02:19:30;;;;;;;19.88;16.55;;;2.50;1.00;;;;;;5024627;28;20205;-84
2023/12/02 02:22:00;;;;;;;17.92;16.10;;;2.50;1.00;;;;;;5021349;28;20616;-86
2023/12/02 02:24:28;;;;;;;19.30;17.20;;;2.50;1.00;;;;;;5021994;28;20198;-85
2023/12/02 02:26:57;;;;;;;18.77;16.95;;;2.50;99.90;;;;;;5020524;28;20309;-85
2023/12/02 02:29:25;;;;;;;16.42;14.77;;;2.50;99.90;;;;;;5018816;28;20199;-85
2023/12/02 02:31:53;;;;;;;17.55;15.75;;;2.40;99.90;;;;;;5017646;28;20210;-85
2023/12/02 02:34:22;;;;;;;18.67;16.67;;;2.50;1.00;;;;;;5017704;28;20202;-85
2023/12/02 02:36:50;;;;;;;17.50;15.63;;;2.50;99.90;;;;;;5019614;28;20233;-85
2023/12/02 02:39:19;;;;;;;18.90;16.65;;;2.40;99.90;;;;;;5019461;28;20206;-84
2023/12/02 02:41:48;;;;;;;17.05;15.32;;;2.30;99.90;;;;;;5018806;28;20194;-84
2023/12/02 02:44:16;;;;;;;16.75;15.00;;;2.40;1.00;;;;;;5021433;28;20203;-84
2023/12/02 02:46:44;;;;;;;17.42;15.63;;;2.40;99.90;;;;;;5019627;28;20230;-86
2023/12/02 02:49:12;;;;;;;18.15;16.38;;;2.40;99.90;;;;;;5019485;28;20199;-85
2023/12/02 02:51:40;;;;;;;17.83;15.93;;;2.30;1.00;;;;;;5020807;28;20225;-84
2023/12/02 02:54:09;;;;;;;16.65;15.15;;;2.30;99.90;;;;;;5020002;28;20210;-85
2023/12/02 02:56:39;;;;;;;17.10;15.60;;;2.40;1.00;;;;;;5019551;28;20233;-83
2023/12/02 02:59:07;;;;;;;16.02;14.40;;;2.40;1.00;;;;;;5018156;28;20289;-85
2023/12/02 03:01:35;;;;;;;16.38;14.98;;;2.40;1.00;;;;;;5023162;28;20697;-83
2023/12/02 03:04:04;;;;;;;17.85;16.15;;;2.40;1.00;;;;;;5018219;28;20288;-85
2023/12/02 03:06:32;;;;;;;15.90;14.40;;;2.40;1.00;;;;;;5017631;28;20687;-83
2023/12/02 03:09:00;;;;;;;17.70;15.90;;;2.40;99.90;;;;;;5020309;28;20207;-84
2023/12/02 03:11:29;;;;;;;16.40;14.77;;;2.30;1.00;;;;;;5019803;28;20202;-86
2023/12/02 03:13:58;;;;;;;15.52;14.23;;;2.30;1.00;;;;;;5017708;28;20203;-83
2023/12/02 03:16:26;;;;;;;14.05;12.82;;;2.30;1.00;;;;;;5017697;28;20620;-84
2023/12/02 03:18:54;;;;;;;14.52;13.30;;;2.30;99.90;;;;;;5018598;28;20227;-82
2023/12/02 03:21:23;;;;;;;15.73;14.32;;;2.30;99.90;;;;;;5020714;28;20809;-85
2023/12/02 03:23:51;;;;;;;14.50;13.40;;;2.30;99.90;;;;;;5017838;28;20307;-85
2023/12/02 03:26:19;;;;;;;14.75;13.43;;;2.30;99.90;;;;;;5020796;28;20219;-85
2023/12/02 03:28:47;;;;;;;14.80;13.50;;;2.30;99.90;;;;;;5017324;28;20198;-84
2023/12/02 03:31:17;;;;;;;13.25;12.15;;;2.40;99.90;;;;;;5018302;28;20199;-82
2023/12/02 03:33:45;;;;;;;13.80;12.60;;;2.40;99.90;;;;;;5021142;28;20201;-85
2023/12/02 03:36:14;;;;;;;14.30;13.02;;;2.30;99.90;;;;;;5019383;28;20222;-83
2023/12/02 03:38:42;;;;;;;14.05;12.77;;;2.30;99.90;;;;;;5019947;28;20231;-84
2023/12/02 03:41:10;;;;;;;13.55;12.35;;;2.30;99.90;;;;;;5018756;28;20234;-82
2023/12/02 03:43:38;;;;;;;13.65;12.45;;;2.30;99.90;;;;;;5020032;28;20293;-84
2023/12/02 03:46:27;;;;;;;14.02;12.82;;;2.30;99.90;;;;;;5020759;28;20777;-85
2023/12/02 03:48:56;;;;;;;13.68;12.63;;;2.30;99.90;;;;;;5022210;28;20226;-82
2023/12/02 03:51:24;;;;;;;14.65;13.35;;;2.30;99.90;;;;;;5016179;28;20577;-83
2023/12/02 03:53:53;;;;;;;13.52;12.30;;;2.20;99.90;;;;;;5016382;28;20198;-85
2023/12/02 03:56:21;;;;;;;13.30;11.90;;;2.30;1.00;;;;;;5019875;28;21217;-85
2023/12/02 03:58:50;;;;;;;13.00;11.85;;;2.30;1.00;;;;;;5019051;28;20195;-83
2023/12/02 04:01:19;;;;;;;12.60;11.50;;;2.20;99.90;;;;;;5019902;28;20205;-84
2023/12/02 04:03:49;;;;;;;14.05;13.05;;;2.20;1.00;;;;;;5018961;28;20204;-84
2023/12/02 04:06:17;;;;;;;13.63;12.32;;;2.20;99.90;;;;;;5016069;28;20708;-83
2023/12/02 04:08:46;;;;;;;12.70;11.65;;;2.30;1.00;;;;;;5018615;28;20245;-84
2023/12/02 04:11:14;;;;;;;11.73;10.93;;;2.30;1.00;;;;;;5016848;28;20226;-82
2023/12/02 04:13:42;;;;;;;12.07;11.18;;;2.20;99.90;;;;;;5019256;28;21491;-84
2023/12/02 04:16:11;;;;;;;10.93;10.32;;;2.20;99.90;;;;;;5018148;28;20239;-84
2023/12/02 04:18:39;;;;;;;11.82;10.85;;;2.20;99.90;;;;;;5018810;28;20194;-82
2023/12/02 04:21:09;;;;;;;11.63;10.60;;;2.20;99.90;;;;;;5017483;28;20664;-81
2023/12/02 04:23:38;;;;;;;11.82;11.02;;;2.20;99.90;;;;;;5019220;28;20195;-82
2023/12/02 04:26:07;;;;;;;11.23;10.40;;;2.20;99.90;;;;;;5017095;28;20263;-81
2023/12/02 04:28:37;;;;;;;11.40;10.55;;;2.10;99.90;;;;;;5017132;28;20226;-82
2023/12/02 04:31:06;;;;;;;11.43;10.63;;;2.20;99.90;;;;;;5020359;28;20198;-82
2023/12/02 04:33:35;;;;;;;11.45;10.55;;;2.10;99.90;;;;;;5018248;28;20214;-82
2023/12/02 04:36:04;;;;;;;11.25;10.27;;;2.10;99.90;;;;;;5019428;28;20214;-82
2023/12/02 04:38:33;;;;;;;11.85;11.05;;;2.10;99.90;;;;;;5020373;28;20557;-82
2023/12/02 04:41:02;;;;;;;11.75;10.80;;;2.10;99.90;;;;;;5020663;28;20238;-82
2023/12/02 04:43:30;;;;;;;11.02;10.23;;;2.10;99.90;;;;;;5014488;28;20227;-81
2023/12/02 04:45:58;;;;;;;11.38;10.48;;;2.10;99.90;;;;;;5016364;28;20222;-82
2023/12/02 04:48:27;;;;;;;9.60;8.88;;;2.10;99.90;;;;;;5015750;28;20226;-83
2023/12/02 04:50:55;;;;;;;10.68;9.98;;;2.10;99.90;;;;;;5018630;28;20237;-84
2023/12/02 04:53:23;;;;;;;10.32;9.63;;;2.10;99.90;;;;;;5014245;28;20222;-84
2023/12/02 04:55:53;;;;;;;9.95;9.23;;;2.10;99.90;;;;;;5015152;28;20237;-85
2023/12/02 04:58:23;;;;;;;11.10;10.30;;;2.10;99.90;;;;;;5018945;28;20195;-85
2023/12/02 05:00:51;;;;;;;12.13;11.10;;;2.10;99.90;;;;;;5014988;28;20198;-82
2023/12/02 05:03:19;;;;;;;11.60;10.85;;;2.10;99.90;;;;;;5016542;28;20206;-85
2023/12/02 05:05:47;;;;;;;12.25;11.25;;;2.10;99.90;;;;;;5018132;28;20284;-84
2023/12/02 05:08:16;;;;;;;11.77;10.77;;;2.00;99.90;;;;;;5016690;28;20224;-83
2023/12/02 05:10:44;;;;;;;11.98;11.18;;;2.10;99.90;;;;;;5018188;28;20199;-82
2023/12/02 05:13:13;;;;;;;11.05;10.25;;;2.10;99.90;;;;;;5016784;28;20199;-83
2023/12/02 05:15:42;;;;;;;11.25;10.48;;;2.00;99.90;;;;;;5016300;28;20261;-81
2023/12/02 05:18:12;;;;;;;11.40;10.60;;;2.10;99.90;;;;;;5017753;28;20229;-83
2023/12/02 05:20:40;;;;;;;11.20;10.40;;;2.00;99.90;;;;;;5012439;28;20212;-82
2023/12/02 05:23:08;;;;;;;10.95;10.30;;;2.00;99.90;;;;;;5019247;28;20667;-83
2023/12/02 05:25:37;;;;;;;11.90;11.00;;;2.00;99.90;;;;;;5019196;28;20237;-81
2023/12/02 05:28:06;;;;;;;11.30;10.20;;;2.00;99.90;;;;;;5014940;28;20711;-83
2023/12/02 05:30:35;;;;;;;11.23;10.40;;;2.00;99.90;;;;;;5019815;28;20321;-84
2023/12/02 05:33:04;;;;;;;10.68;9.88;;;2.00;99.90;;;;;;5019551;28;20214;-80
2023/12/02 05:35:32;;;;;;;10.65;9.90;;;2.00;99.90;;;;;;5016160;28;20231;-85
2023/12/02 05:38:00;;;;;;;12.13;11.43;;;1.90;99.90;;;;;;5016560;28;20286;-83
2023/12/02 05:40:29;;;;;;;10.75;10.15;;;1.90;99.90;;;;;;5017547;28;20684;-85
2023/12/02 05:42:57;;;;;;;10.23;9.65;;;1.90;99.90;;;;;;5020713;28;20701;-81
2023/12/02 05:45:28;;;;;;;12.18;11.30;;;2.00;99.90;;;;;;5016685;28;20741;-83
2023/12/02 05:47:57;;;;;;;9.50;9.00;;;1.90;99.90;;;;;;5018684;28;20210;-83
2023/12/02 05:50:26;;;;;;;10.57;9.98;;;1.90;99.90;;;;;;5016259;28;20202;-81
2023/12/02 05:52:54;;;;;;;10.65;9.95;;;1.90;99.90;;;;;;5024109;28;20234;-83
2023/12/02 05:55:22;;;;;;;10.88;10.10;;;1.90;99.90;;;;;;5023831;28;20234;-82
2023/12/02 05:57:52;;;;;;;11.15;10.35;;;1.90;99.90;;;;;;5023208;28;20205;-84
2023/12/02 06:00:20;;;;;;;10.38;9.65;;;1.90;99.90;;;;;;5025866;28;20216;-84
2023/12/02 06:02:48;;;;;;;11.23;10.32;;;1.90;99.90;;;;;;5020208;28;20588;-84
2023/12/02 06:05:18;;;;;;;10.88;9.93;;;1.90;99.90;;;;;;5017791;28;20316;-83
2023/12/02 06:07:46;;;;;;;10.30;9.55;;;1.90;99.90;;;;;;5016219;28;20661;-84
2023/12/02 06:10:14;;;;;;;11.35;10.50;;;1.90;99.90;;;;;;5017739;28;20227;-83
2023/12/02 06:12:43;;;;;;;11.35;10.63;;;1.90;99.90;;;;;;5022918;28;20582;-83
2023/12/02 06:15:11;;;;;;;11.18;10.30;;;1.90;99.90;;;;;;5018475;28;20795;-84
2023/12/02 06:17:40;;;;;;;11.57;10.73;;;1.90;99.90;;;;;;5018591;28;20203;-84
2023/12/02 06:20:11;;;;;;;11.45;10.75;;;1.90;99.90;;;;;;5019500;28;20580;-83
2023/12/02 06:22:41;;;;;;;11.70;10.80;;;1.90;99.90;;;;;;5016989;28;20688;-83
2023/12/02 06:25:09;;;;;;;11.68;10.70;;;1.90;99.90;;;;;;5017298;28;20245;-83
2023/12/02 06:27:38;;;;;;;11.65;10.85;;;1.80;99.90;;;;;;5021279;28;20660;-82
2023/12/02 06:30:09;;;;;;;12.20;11.20;;;1.90;99.90;;;;;;5020078;28;20218;-82
2023/12/02 06:32:42;;;;;;;10.88;10.00;;;1.90;99.90;;;;;;5015201;28;20206;-83
2023/12/02 06:35:12;;;;;;;12.50;11.50;;;1.80;99.90;;;;;;5020545;28;20226;-83
2023/12/02 06:37:41;;;;;;;10.52;9.85;;;1.90;99.90;;;;;;5022637;28;20195;-83
2023/12/02 06:40:11;;;;;;;11.48;10.68;;;1.90;99.90;;;;;;5024756;28;20225;-83
2023/12/02 06:42:40;;;;;;;10.50;9.80;;;1.90;99.90;;;;;;5023174;28;20203;-83
2023/12/02 06:45:09;;;;;;;10.85;10.00;;;1.90;99.90;;;;;;5022752;28;20215;-82
2023/12/02 06:47:37;;;;;;;12.02;11.10;;;1.80;99.90;;;;;;5020561;28;20205;-79
2023/12/02 06:50:06;;;;;;;11.15;10.20;;;1.80;99.90;;;;;;5016462;28;20245;-84
2023/12/02 06:52:35;;;;;;;12.98;11.68;;;1.70;99.90;;;;;;5033266;28;20216;-83
2023/12/02 06:55:06;;;;;;;10.88;10.07;;;1.80;99.90;;;;;;5018062;28;20218;-83
2023/12/02 06:57:37;;;;;;;12.10;10.95;;;1.70;99.90;;;;;;5015368;28;21518;-80
2023/12/02 07:00:09;;;;;;;12.93;11.80;;;1.70;99.90;;;;;;5022571;28;20198;-82
2023/12/02 07:02:38;;;;;;;12.85;11.73;;;1.70;99.90;;;;;;5020213;28;20297;-82
2023/12/02 07:05:07;;;;;;;12.13;11.10;;;1.70;62.30;;;;;;5019171;28;20227;-82
2023/12/02 07:07:35;;;;;;;13.82;12.55;;;1.70;21.20;;;;;;5019936;28;20230;-83
2023/12/02 07:10:07;;;;;;;12.57;11.57;;;1.70;11.90;;;;;;5021080;28;20791;-84
2023/12/02 07:12:35;;;;;;;12.38;11.27;;;1.70;6.90;;;;;;5020736;28;20631;-85
2023/12/02 07:15:05;;;;;;;15.85;14.30;;;1.70;1.00;;;;;;5020385;28;20214;-83
2023/12/02 07:17:33;;;;;;;13.38;12.23;;;1.70;1.00;;;;;;5018888;28;20666;-82
2023/12/02 07:20:02;;;;;;;14.32;13.13;;;1.70;1.00;;;;;;5021214;28;20571;-85
2023/12/02 07:22:30;;;;;;;14.68;13.48;;;1.60;1.00;;;;;;5016799;28;20751;-82
2023/12/02 07:24:58;;;;;;;13.73;12.52;;;1.60;1.00;;;;;;5020608;28;20211;-83
2023/12/02 07:27:28;;;;;;;14.50;13.10;;;1.60;18.30;;;;;;5027169;28;20207;-84
2023/12/02 07:29:57;;;;;;;13.23;11.82;;;1.70;1.00;;;;;;5022015;28;20783;-83
2023/12/02 07:32:28;;;;;;;12.75;11.75;;;1.70;1.00;;;;;;5021049;28;20214;-85
2023/12/02 07:34:56;;;;;;;13.52;12.27;;;1.70;26.60;;;;;;5021070;28;20244;-84
2023/12/02 07:37:24;;;;;;;13.95;12.65;;;1.80;15.40;;;;;;5019724;28;20300;-84
2023/12/02 07:39:53;;;;;;;13.93;12.68;;;1.60;1.00;;;;;;5020637;28;20276;-81
2023/12/02 07:42:21;;;;;;;14.65;13.13;;;1.60;31.00;;;;;;5020932;28;20293;-88
2023/12/02 07:44:50;;;;;;;13.27;12.10;;;1.70;34.80;;;;;;5021496;28;20727;-84
2023/12/02 07:47:19;;;;;;;14.55;13.15;;;1.70;29.00;;;;;;5021464;28;20253;-84
2023/12/02 07:49:47;;;;;;;11.93;10.73;;;1.70;94.40;;;;;;5016938;28;20408;-82
2023/12/02 07:52:15;;;;;;;10.50;9.60;;;1.70;67.20;;;;;;5016301;28;20268;-84
2023/12/02 07:54:43;;;;;;;9.27;8.60;;;1.70;46.80;;;;;;5017097;28;20205;-81
2023/12/02 07:57:12;;;;;;;9.57;8.73;;;1.70;19.10;;;;;;5020549;28;20203;-82
2023/12/02 07:59:40;;;;;;;8.80;8.20;;;1.80;99.90;;;;;;5008862;28;20191;-81
2023/12/02 08:02:09;;;;;;;8.05;7.63;;;1.80;99.90;;;;;;5017535;28;20836;-86
2023/12/02 08:04:38;;;;;;;9.13;8.52;;;1.80;69.70;;;;;;5020107;28;20210;-83
2023/12/02 08:07:07;;;;;;;9.20;8.57;;;1.80;14.60;;;;;;5018521;28;20306;-85
2023/12/02 08:09:35;;;;;;;10.68;9.85;;;1.80;1.00;;;;;;5026080;28;20245;-86
2023/12/02 08:12:04;;;;;;;11.40;10.35;;;1.70;1.00;;;;;;5017643;28;20206;-84
2023/12/02 08:14:32;;;;;;;10.82;9.90;;;1.70;1.00;;;;;;5020263;28;20205;-81
2023/12/02 08:17:00;;;;;;;9.82;9.10;;;1.70;1.00;;;;;;5020345;28;20203;-82
2023/12/02 08:19:30;;;;;;;9.75;8.85;;;1.70;1.00;;;;;;5018006;28;20210;-82
2023/12/02 08:21:58;;;;;;;10.90;10.00;;;1.70;1.00;;;;;;5016903;28;20239;-82
2023/12/02 08:24:27;;;;;;;10.63;9.73;;;1.70;1.00;;;;;;5015274;28;20198;-82
2023/12/02 08:26:55;;;;;;;11.05;10.13;;;1.70;1.00;;;;;;5016390;28;20222;-83
2023/12/02 08:29:23;;;;;;;12.10;11.00;;;1.60;1.00;;;;;;5015151;28;20703;-82
2023/12/02 08:31:51;;;;;;;10.30;9.50;;;1.60;1.00;;;;;;5018183;28;20210;-82
2023/12/02 08:34:22;;;;;;;12.75;11.43;;;1.70;1.00;;;;;;5015065;28;20210;-82
2023/12/02 08:36:52;;;;;;;11.10;10.20;;;1.60;1.00;;;;;;5018572;28;20223;-83
2023/12/02 08:39:20;;;;;;;12.43;11.27;;;1.60;1.00;;;;;;5019099;28;20209;-83
2023/12/02 08:41:48;;;;;;;11.65;10.73;;;1.60;1.00;;;;;;5020296;28;20201;-82
2023/12/02 08:44:16;;;;;;;11.50;10.57;;;1.60;1.00;;;;;;5016540;28;20213;-81
2023/12/02 08:46:45;;;;;;;11.93;10.80;;;1.60;1.00;;;;;;5014612;28;20246;-81
2023/12/02 08:49:13;;;;;;;12.82;11.60;;;1.60;1.00;;;;;;5010220;28;20203;-81
2023/12/02 08:51:41;;;;;;;12.00;10.85;;;1.60;1.00;;;;;;5017866;28;20226;-82
2023/12/02 08:54:11;;;;;;;11.15;10.35;;;1.70;1.00;;;;;;5015409;28;20719;-82
2023/12/02 08:56:39;;;;;;;12.77;11.60;;;1.60;1.00;;;;;;5018409;28;20599;-81
2023/12/02 08:59:08;;;;;;;14.02;12.80;;;1.70;1.00;;;;;;5018618;28;20265;-82
2023/12/02 09:01:36;;;;;;;12.05;10.98;;;1.70;1.00;;;;;;5015424;28;20218;-82
2023/12/02 09:04:06;;;;;;;13.15;11.90;;;1.70;1.00;;;;;;5025034;28;20203;-82
2023/12/02 09:06:35;;;;;;;10.95;10.15;;;1.70;1.00;;;;;;5017366;28;20242;-83
2023/12/02 09:09:08;;;;;;;11.40;10.52;;;1.60;1.00;;;;;;5017290;28;20214;-82
2023/12/02 09:11:37;;;;;;;11.13;10.23;;;1.60;1.00;;;;;;5018283;28;20226;-82
2023/12/02 09:14:06;;;;;;;11.95;10.82;;;1.70;1.00;;;;;;5019645;28;20206;-82
2023/12/02 09:16:34;;;;;;;12.25;11.25;;;1.70;1.00;;;;;;5015042;28;20770;-82
2023/12/02 09:19:19;;;;;;;12.00;11.05;;;1.80;1.00;;;;;;5014195;28;20284;-81
2023/12/02 09:21:47;;;;;;;11.85;10.85;;;1.70;1.00;;;;;;5004961;28;20982;-83
2023/12/02 09:24:40;;;;;;;12.30;11.20;;;1.80;1.00;;;;;;5014943;28;20202;-82
2023/12/02 09:27:10;;;;;;;12.10;10.98;;;1.80;1.00;;;;;;5036706;28;20271;-82
2023/12/02 09:29:41;;;;;;;14.40;12.50;;;1.80;1.00;;;;;;5015825;28;20199;-81
2023/12/02 09:32:33;;;;;;;13.77;12.73;;;1.80;1.00;;;;;;5014989;28;20198;-82
2023/12/02 09:35:03;;;;;;;13.43;12.15;;;1.80;1.00;;;;;;5016636;28;20239;-82
2023/12/02 09:37:54;;;;;;;12.90;11.70;;;1.70;1.00;;;;;;5013130;28;20191;-81
2023/12/02 09:40:40;;;;;;;13.20;12.10;;;1.70;1.00;;;;;;5018818;28;20186;-81
2023/12/02 09:43:22;;;;;;;13.55;12.35;;;1.70;1.00;;;;;;5014370;28;20203;-80
2023/12/02 09:46:10;;;;;;;12.93;11.88;;;1.70;1.00;;;;;;5018458;28;20215;-81
2023/12/02 09:48:44;;;;;;;13.45;12.25;;;1.70;1.00;;;;;;5016785;28;20451;-81
2023/12/02 09:51:24;;;;;;;12.82;11.85;;;1.80;1.00;;;;;;5024078;28;20312;-80
2023/12/02 09:54:01;;;;;;;12.95;11.75;;;1.70;1.00;;;;;;5021071;28;20190;-80
2023/12/02 09:56:35;;;;;;;12.88;11.68;;;1.70;1.00;;;;;;5016639;28;20228;-79
2023/12/02 09:59:14;;;;;;;13.68;12.43;;;1.70;1.00;;;;;;5015265;28;20540;-80
2023/12/02 10:01:44;;;;;;;12.35;11.20;;;1.70;1.00;;;;;;5018883;28;20221;-82
2023/12/02 10:04:24;;;;;;;13.15;12.02;;;1.70;1.00;;;;;;5014553;28;20222;-81
2023/12/02 10:07:02;;;;;;;13.40;12.27;;;1.70;1.00;;;;;;5017001;28;20222;-85
2023/12/02 10:09:44;;;;;;;12.68;11.57;;;1.70;1.00;;;;;;5014592;28;20230;-82
2023/12/02 10:12:24;;;;;;;11.80;10.63;;;1.80;1.00;;;;;;5014981;28;20242;-82
2023/12/02 10:15:00;;;;;;;12.23;11.13;;;1.70;1.00;;;;;;5020687;28;20297;-80
2023/12/02 10:17:37;;;;;;;11.20;10.02;;;1.80;1.00;;;;;;5023405;28;21271;-82
2023/12/02 10:20:11;;;;;;;10.50;9.50;;;1.70;1.00;;;;;;5018125;28;20205;-82
2023/12/02 10:22:45;;;;;;;11.38;10.52;;;1.70;1.00;;;;;;5020187;28;20288;-81
2023/12/02 10:25:33;;;;;;;11.23;10.23;;;1.70;1.00;;;;;;5025709;28;20227;-80
2023/12/02 10:28:12;;;;;;;10.50;9.80;;;1.70;1.00;;;;;;5027331;28;20210;-80
2023/12/02 10:30:50;;;;;;;11.15;10.27;;;1.70;1.00;;;;;;5030842;28;20249;-79
2023/12/02 10:33:28;;;;;;;10.45;9.65;;;1.70;1.00;;;;;;5021936;28;20207;-79
2023/12/02 10:36:01;;;;;;;11.75;10.70;;;1.70;1.00;;;;;;5021834;28;20232;-79
2023/12/02 10:38:41;;;;;;;12.38;11.13;;;1.80;1.00;;;;;;5020903;28;20262;-79
2023/12/02 10:41:16;;;;;;;11.40;10.38;;;1.70;1.00;;;;;;5028134;28;20204;-81
2023/12/02 10:43:47;;;;;;;12.23;11.23;;;1.70;1.00;;;;;;5026077;28;20197;-78
2023/12/02 10:46:19;;;;;;;11.05;10.25;;;1.70;1.00;;;;;;5026020;28;20231;-80
2023/12/02 10:48:47;;;;;;;11.48;10.57;;;1.70;1.00;;;;;;5030619;28;20195;-79
2023/12/02 10:51:16;;;;;;;12.10;10.93;;;1.80;1.00;;;;;;5030097;28;20241;-79
2023/12/02 10:53:45;;;;;;;11.60;10.48;;;1.80;1.00;;;;;;5032210;28;20203;-79
2023/12/02 10:56:21;;;;;;;12.35;11.18;;;1.70;1.00;;;;;;5031159;28;20226;-79
2023/12/02 10:58:50;;;;;;;11.48;10.48;;;1.70;1.00;;;;;;5029960;28;20195;-81
2023/12/02 11:01:37;;;;;;;12.38;10.98;;;1.70;1.00;;;;;;5025564;28;20241;-79
2023/12/02 11:04:14;;;;;;;11.18;10.38;;;1.80;1.00;;;;;;5022811;28;20246;-79
2023/12/02 11:06:51;;;;;;;10.38;9.68;;;1.80;1.00;;;;;;5020073;28;20231;-78
2023/12/02 11:09:29;;;;;;;11.32;10.32;;;1.70;1.00;;;;;;5028502;28;20206;-79
2023/12/02 11:12:04;;;;;;;11.95;11.05;;;1.70;1.00;;;;;;5025226;28;20215;-79
2023/12/02 11:14:39;;;;;;;11.82;10.73;;;1.70;1.00;;;;;;5023483;28;20214;-80
2023/12/02 11:17:17;;;;;;;11.45;10.52;;;1.70;1.00;;;;;;5022467;28;20221;-80
2023/12/02 11:20:08;;;;;;;10.93;10.02;;;1.60;1.00;;;;;;5024385;28;20198;-79
2023/12/02 11:23:02;;;;;;;11.05;10.25;;;1.70;1.00;;;;;;5020510;28;21102;-79
2023/12/02 11:25:45;;;;;;;11.73;10.55;;;1.70;1.00;;;;;;4994393;28;20231;-80
2023/12/02 11:28:23;;;;;;;11.75;10.75;;;1.60;1.00;;;;;;5021675;28;20203;-80
2023/12/02 11:31:16;;;;;;;11.13;10.07;;;1.70;1.00;;;;;;5017374;28;20329;-79
2023/12/02 11:33:59;;;;;;;11.95;10.98;;;1.60;1.00;;;;;;5018838;28;20767;-81
2023/12/02 11:36:37;;;;;;;12.43;11.43;;;1.60;1.00;;;;;;5018582;28;20218;-79
2023/12/02 11:39:16;;;;;;;13.20;12.00;;;1.60;1.00;;;;;;5023257;28;20203;-80
2023/12/02 11:41:54;;;;;;;11.30;10.40;;;1.60;1.00;;;;;;5018982;28;20210;-80
2023/12/02 11:44:37;;;;;;;11.30;10.23;;;1.60;1.00;;;;;;5018108;28;20208;-80
2023/12/02 11:47:25;;;;;;;10.32;9.30;;;1.60;1.00;;;;;;5018566;28;20195;-81
2023/12/02 11:50:16;;;;;;;10.13;9.32;;;1.60;1.00;;;;;;5019759;28;20226;-78
2023/12/02 11:52:59;;;;;;;10.80;9.95;;;1.60;1.00;;;;;;5019206;28;20234;-78
2023/12/02 11:55:32;;;;;;;11.07;10.07;;;1.60;1.00;;;;;;5020397;28;21463;-81
2023/12/02 11:58:12;;;;;;;10.60;9.75;;;1.60;1.00;;;;;;5026857;28;20206;-80
2023/12/02 12:00:53;;;;;;;10.82;9.88;;;1.60;1.00;;;;;;5024131;28;20597;-78
2023/12/02 12:03:42;;;;;;;10.85;9.77;;;1.60;1.00;;;;;;5022928;28;20218;-81
2023/12/02 12:06:32;;;;;;;11.18;10.13;;;1.60;1.00;;;;;;5023983;28;20257;-79
2023/12/02 12:09:12;;;;;;;11.20;10.20;;;1.60;1.00;;;;;;5016943;28;20453;-80
2023/12/02 12:11:41;;;;;;;11.13;10.23;;;1.50;1.00;;;;;;5027199;28;20787;-80
2023/12/02 12:14:11;;;;;;;9.55;8.75;;;1.50;1.00;;;;;;5025270;28;20281;-80
2023/12/02 12:16:40;;;;;;;10.02;9.32;;;1.60;1.00;;;;;;5024256;28;20606;-80
2023/12/02 12:19:10;;;;;;;10.02;9.23;;;1.60;1.00;;;;;;5019703;28;20249;-79
2023/12/02 12:21:41;;;;;;;9.95;9.25;;;1.60;99.90;;;;;;5025492;28;20202;-80
2023/12/02 12:24:09;;;;;;;9.00;8.40;;;1.50;1.00;;;;;;5025144;28;20209;-80
2023/12/02 12:26:38;;;;;;;10.23;9.48;;;1.50;99.90;;;;;;5016128;28;20225;-80
2023/12/02 12:29:06;;;;;;;10.65;8.68;;;1.50;99.90;;;;;;5018059;28;20276;-78
2023/12/02 12:31:34;;;;;;;9.57;8.80;;;1.50;1.00;;;;;;5020992;28;20276;-79
2023/12/02 12:34:04;;;;;;;8.32;7.72;;;1.50;1.00;;;;;;5021093;28;20289;-79
2023/12/02 12:36:32;;;;;;;8.32;7.75;;;1.40;99.90;;;;;;5022465;28;20211;-80
2023/12/02 12:39:03;;;;;;;9.75;9.05;;;1.40;99.90;;;;;;5015116;28;20202;-80
2023/12/02 12:41:31;;;;;;;8.85;8.25;;;1.40;99.90;;;;;;5014164;28;20213;-78
2023/12/02 12:44:03;;;;;;;10.55;9.65;;;1.40;99.90;;;;;;5021504;28;20277;-80
2023/12/02 12:46:32;;;;;;;11.18;10.13;;;1.40;99.90;;;;;;5018490;28;20222;-79
2023/12/02 12:49:05;;;;;;;10.93;10.02;;;1.40;99.90;;;;;;5025129;28;20203;-79
2023/12/02 12:51:34;;;;;;;10.05;9.25;;;1.40;99.90;;;;;;5023948;28;20202;-79
2023/12/02 12:54:06;;;;;;;8.55;8.05;;;1.50;99.90;;;;;;5022506;28;20760;-80
2023/12/02 12:56:40;;;;;;;9.40;8.45;;;1.40;99.90;;;;;;5018587;28;20302;-78
2023/12/02 12:59:10;;;;;;;8.98;8.20;;;1.40;99.90;;;;;;5018152;28;20385;-78
2023/12/02 13:01:47;;;;;;;9.45;8.63;;;1.50;1.00;;;;;;5017876;28;20234;-79
2023/12/02 13:04:25;;;;;;;10.02;9.32;;;1.40;99.90;;;;;;5017720;28;20210;-79